sensor_id;sensor_type;location;lat;lon;timestamp;pressure;altitude;pressure_sealevel;temperature;humidity
71195;BME280;58908;51.426;7.714;2022-12-29T00:01:35;98557.34;;;9.13;100.00
71195;BME280;58908;51.426;7.714;2022-12-29T00:04:02;98551.38;;;9.11;100.00
71195;BME280;58908;51.426;7.714;2022-12-29T00:06:28;98545.44;;;9.20;100.00
71195;BME280;58908;51.426;7.714;2022-12-29T00:08:55;98522.84;;;9.18;100.00
71195;BME280;58908;51.426;7.714;2022-12-29T00:11:23;98525.00;;;9.24;100.00
71195;BME280;58908;51.426;7.714;2022-12-29T00:13:50;98525.00;;;9.24;100.00
71195;BME280;58908;51.426;7.714;2022-12-29T00:16:35;98523.56;;;9.20;100.00
71195;BME280;58908;51.426;7.714;2022-12-29T00:19:02;98512.72;;;9.24;100.00
71195;BME280;58908;51.426;7.714;2022-12-29T00:21:28;98523.00;;;9.27;100.00
71195;BME280;58908;51.426;7.714;2022-12-29T00:24:12;98517.84;;;9.26;100.00
71195;BME280;58908;51.426;7.714;2022-12-29T00:26:58;98518.38;;;9.31;100.00
71195;BME280;58908;51.426;7.714;2022-12-29T00:29:52;98517.50;;;9.43;100.00
71195;BME280;58908;51.426;7.714;2022-12-29T00:32:35;98495.19;;;9.36;100.00
71195;BME280;58908;51.426;7.714;2022-12-29T00:35:21;98500.69;;;9.33;100.00
71195;BME280;58908;51.426;7.714;2022-12-29T00:37:48;98508.25;;;9.37;100.00
71195;BME280;58908;51.426;7.714;2022-12-29T00:40:32;98483.50;;;9.40;100.00
71195;BME280;58908;51.426;7.714;2022-12-29T00:43:17;98486.66;;;9.32;100.00
71195;BME280;58908;51.426;7.714;2022-12-29T00:46:01;98497.72;;;9.37;100.00
71195;BME280;58908;51.426;7.714;2022-12-29T00:48:28;98491.41;;;9.40;100.00
71195;BME280;58908;51.426;7.714;2022-12-29T00:51:12;98491.34;;;9.52;100.00
71195;BME280;58908;51.426;7.714;2022-12-29T00:53:38;98495.88;;;9.50;100.00
71195;BME280;58908;51.426;7.714;2022-12-29T00:56:04;98497.13;;;9.57;100.00
71195;BME280;58908;51.426;7.714;2022-12-29T00:58:32;98482.81;;;9.48;100.00
71195;BME280;58908;51.426;7.714;2022-12-29T01:01:01;98478.03;;;9.43;100.00
71195;BME280;58908;51.426;7.714;2022-12-29T01:03:28;98475.47;;;9.41;100.00
71195;BME280;58908;51.426;7.714;2022-12-29T01:05:54;98469.00;;;9.34;100.00
71195;BME280;58908;51.426;7.714;2022-12-29T01:08:20;98469.59;;;9.38;100.00
71195;BME280;58908;51.426;7.714;2022-12-29T01:10:46;98469.88;;;9.45;100.00
71195;BME280;58908;51.426;7.714;2022-12-29T01:13:22;98475.06;;;9.47;100.00
71195;BME280;58908;51.426;7.714;2022-12-29T01:15:50;98469.56;;;9.50;100.00
71195;BME280;58908;51.426;7.714;2022-12-29T01:18:16;98478.19;;;9.52;100.00
71195;BME280;58908;51.426;7.714;2022-12-29T01:20:43;98466.91;;;9.50;100.00
71195;BME280;58908;51.426;7.714;2022-12-29T01:23:09;98473.47;;;9.44;100.00
71195;BME280;58908;51.426;7.714;2022-12-29T01:25:35;98465.09;;;9.40;100.00
71195;BME280;58908;51.426;7.714;2022-12-29T01:28:02;98471.41;;;9.37;100.00
71195;BME280;58908;51.426;7.714;2022-12-29T01:30:28;98477.84;;;9.33;100.00
71195;BME280;58908;51.426;7.714;2022-12-29T01:32:56;98460.25;;;9.34;100.00
71195;BME280;58908;51.426;7.714;2022-12-29T01:35:22;98460.75;;;9.38;100.00
71195;BME280;58908;51.426;7.714;2022-12-29T01:37:48;98442.31;;;9.38;100.00
71195;BME280;58908;51.426;7.714;2022-12-29T01:40:14;98439.44;;;9.31;100.00
71195;BME280;58908;51.426;7.714;2022-12-29T01:42:41;98454.72;;;9.49;100.00
71195;BME280;58908;51.426;7.714;2022-12-29T01:45:08;98448.94;;;9.44;100.00
71195;BME280;58908;51.426;7.714;2022-12-29T01:47:35;98449.34;;;9.50;100.00
71195;BME280;58908;51.426;7.714;2022-12-29T01:50:06;98462.34;;;9.64;100.00
71195;BME280;58908;51.426;7.714;2022-12-29T01:52:35;98469.38;;;9.64;100.00
71195;BME280;58908;51.426;7.714;2022-12-29T01:55:03;98464.69;;;9.56;100.00
71195;BME280;58908;51.426;7.714;2022-12-29T01:57:31;98450.06;;;9.52;100.00
71195;BME280;58908;51.426;7.714;2022-12-29T02:00:00;98448.25;;;9.53;100.00
71195;BME280;58908;51.426;7.714;2022-12-29T02:02:28;98454.81;;;9.47;100.00
71195;BME280;58908;51.426;7.714;2022-12-29T02:04:55;98452.56;;;9.54;100.00
71195;BME280;58908;51.426;7.714;2022-12-29T02:07:24;98462.91;;;9.57;100.00
71195;BME280;58908;51.426;7.714;2022-12-29T02:09:52;98445.28;;;9.57;100.00
71195;BME280;58908;51.426;7.714;2022-12-29T02:12:19;98449.34;;;9.50;100.00
71195;BME280;58908;51.426;7.714;2022-12-29T02:14:46;98442.19;;;9.52;100.00
71195;BME280;58908;51.426;7.714;2022-12-29T02:17:17;98459.97;;;9.72;100.00
71195;BME280;58908;51.426;7.714;2022-12-29T02:20:06;98445.28;;;9.81;100.00
71195;BME280;58908;51.426;7.714;2022-12-29T02:22:44;98438.09;;;9.83;100.00
71195;BME280;58908;51.426;7.714;2022-12-29T02:25:22;98433.69;;;9.83;100.00
71195;BME280;58908;51.426;7.714;2022-12-29T02:28:13;98430.31;;;9.81;100.00
71195;BME280;58908;51.426;7.714;2022-12-29T02:30:47;98417.28;;;9.80;100.00
71195;BME280;58908;51.426;7.714;2022-12-29T02:33:21;98401.00;;;9.86;100.00
71195;BME280;58908;51.426;7.714;2022-12-29T02:35:52;98409.03;;;9.84;100.00
71195;BME280;58908;51.426;7.714;2022-12-29T02:38:20;98425.03;;;9.81;100.00
71195;BME280;58908;51.426;7.714;2022-12-29T02:40:51;98421.06;;;9.76;100.00
71195;BME280;58908;51.426;7.714;2022-12-29T02:43:21;98404.69;;;9.72;100.00
71195;BME280;58908;51.426;7.714;2022-12-29T02:45:51;98407.56;;;9.80;100.00
71195;BME280;58908;51.426;7.714;2022-12-29T02:48:22;98399.56;;;9.82;100.00
71195;BME280;58908;51.426;7.714;2022-12-29T02:50:50;98398.47;;;9.73;100.00
71195;BME280;58908;51.426;7.714;2022-12-29T02:53:18;98388.69;;;9.86;100.00
71195;BME280;58908;51.426;7.714;2022-12-29T02:56:06;98385.53;;;9.81;100.00
71195;BME280;58908;51.426;7.714;2022-12-29T02:58:31;98389.75;;;9.84;100.00
71195;BME280;58908;51.426;7.714;2022-12-29T03:01:03;98395.50;;;9.89;100.00
71195;BME280;58908;51.426;7.714;2022-12-29T03:03:36;98384.03;;;9.90;100.00
71195;BME280;58908;51.426;7.714;2022-12-29T03:06:11;98378.84;;;9.88;100.00
71195;BME280;58908;51.426;7.714;2022-12-29T03:08:44;98392.28;;;9.96;100.00
71195;BME280;58908;51.426;7.714;2022-12-29T03:11:11;98389.94;;;10.04;100.00
71195;BME280;58908;51.426;7.714;2022-12-29T03:13:52;98384.66;;;10.04;100.00
71195;BME280;58908;51.426;7.714;2022-12-29T03:16:40;98387.78;;;10.09;100.00
71195;BME280;58908;51.426;7.714;2022-12-29T03:19:09;98383.94;;;10.13;100.00
71195;BME280;58908;51.426;7.714;2022-12-29T03:21:41;98392.72;;;10.25;100.00
71195;BME280;58908;51.426;7.714;2022-12-29T03:24:29;98385.78;;;10.24;100.00
71195;BME280;58908;51.426;7.714;2022-12-29T03:26:57;98383.00;;;10.25;100.00
71195;BME280;58908;51.426;7.714;2022-12-29T03:29:24;98390.09;;;10.25;100.00
71195;BME280;58908;51.426;7.714;2022-12-29T03:31:54;98392.47;;;10.28;100.00
71195;BME280;58908;51.426;7.714;2022-12-29T03:34:21;98399.16;;;10.21;100.00
71195;BME280;58908;51.426;7.714;2022-12-29T03:36:49;98388.50;;;10.11;100.00
71195;BME280;58908;51.426;7.714;2022-12-29T03:39:17;98404.44;;;10.21;100.00
71195;BME280;58908;51.426;7.714;2022-12-29T03:41:44;98400.13;;;10.09;100.00
71195;BME280;58908;51.426;7.714;2022-12-29T03:44:11;98396.66;;;10.08;100.00
71195;BME280;58908;51.426;7.714;2022-12-29T03:46:38;98397.25;;;10.12;100.00
71195;BME280;58908;51.426;7.714;2022-12-29T03:49:06;98395.41;;;10.01;100.00
71195;BME280;58908;51.426;7.714;2022-12-29T03:51:32;98390.00;;;9.92;100.00
71195;BME280;58908;51.426;7.714;2022-12-29T03:53:58;98387.22;;;9.93;100.00
71195;BME280;58908;51.426;7.714;2022-12-29T03:56:24;98395.72;;;9.86;100.00
71195;BME280;58908;51.426;7.714;2022-12-29T03:58:51;98392.47;;;9.82;100.00
71195;BME280;58908;51.426;7.714;2022-12-29T04:01:17;98397.03;;;9.80;100.00
71195;BME280;58908;51.426;7.714;2022-12-29T04:03:43;98392.03;;;9.88;100.00
71195;BME280;58908;51.426;7.714;2022-12-29T04:06:11;98395.69;;;9.75;100.00
71195;BME280;58908;51.426;7.714;2022-12-29T04:08:37;98394.03;;;9.74;100.00
71195;BME280;58908;51.426;7.714;2022-12-29T04:11:03;98389.56;;;9.63;100.00
71195;BME280;58908;51.426;7.714;2022-12-29T04:13:29;98384.41;;;9.62;100.00
71195;BME280;58908;51.426;7.714;2022-12-29T04:15:56;98377.72;;;9.58;100.00
71195;BME280;58908;51.426;7.714;2022-12-29T04:18:22;98386.06;;;9.52;100.00
71195;BME280;58908;51.426;7.714;2022-12-29T04:20:48;98393.94;;;9.52;100.00
71195;BME280;58908;51.426;7.714;2022-12-29T04:23:29;98381.69;;;9.63;100.00
71195;BME280;58908;51.426;7.714;2022-12-29T04:25:55;98384.66;;;9.59;100.00
71195;BME280;58908;51.426;7.714;2022-12-29T04:28:22;98381.16;;;9.58;100.00
71195;BME280;58908;51.426;7.714;2022-12-29T04:30:48;98369.69;;;9.59;100.00
71195;BME280;58908;51.426;7.714;2022-12-29T04:33:14;98357.41;;;9.71;100.00
71195;BME280;58908;51.426;7.714;2022-12-29T04:35:41;98351.06;;;9.73;100.00
71195;BME280;58908;51.426;7.714;2022-12-29T04:38:07;98340.06;;;9.79;100.00
71195;BME280;58908;51.426;7.714;2022-12-29T04:40:35;98335.03;;;9.87;100.00
71195;BME280;58908;51.426;7.714;2022-12-29T04:43:03;98330.72;;;9.86;100.00
71195;BME280;58908;51.426;7.714;2022-12-29T04:45:29;98327.25;;;9.97;100.00
71195;BME280;58908;51.426;7.714;2022-12-29T04:47:56;98305.47;;;9.95;100.00
71195;BME280;58908;51.426;7.714;2022-12-29T04:50:22;98302.47;;;9.77;100.00
71195;BME280;58908;51.426;7.714;2022-12-29T04:52:48;98303.88;;;9.70;100.00
71195;BME280;58908;51.426;7.714;2022-12-29T04:55:15;98314.56;;;9.69;100.00
71195;BME280;58908;51.426;7.714;2022-12-29T04:57:42;98322.69;;;9.88;100.00
71195;BME280;58908;51.426;7.714;2022-12-29T05:00:09;98333.63;;;9.94;100.00
71195;BME280;58908;51.426;7.714;2022-12-29T05:02:35;98328.09;;;9.86;100.00
71195;BME280;58908;51.426;7.714;2022-12-29T05:05:02;98331.25;;;10.02;100.00
71195;BME280;58908;51.426;7.714;2022-12-29T05:07:28;98335.00;;;10.11;100.00
71195;BME280;58908;51.426;7.714;2022-12-29T05:09:54;98338.19;;;10.14;100.00
71195;BME280;58908;51.426;7.714;2022-12-29T05:12:21;98331.75;;;10.18;100.00
71195;BME280;58908;51.426;7.714;2022-12-29T05:14:48;98336.66;;;10.23;100.00
71195;BME280;58908;51.426;7.714;2022-12-29T05:17:15;98347.06;;;10.35;100.00
71195;BME280;58908;51.426;7.714;2022-12-29T05:19:41;98354.16;;;10.46;100.00
71195;BME280;58908;51.426;7.714;2022-12-29T05:22:07;98351.38;;;10.47;100.00
71195;BME280;58908;51.426;7.714;2022-12-29T05:24:33;98347.78;;;10.48;100.00
71195;BME280;58908;51.426;7.714;2022-12-29T05:26:59;98349.34;;;10.51;100.00
71195;BME280;58908;51.426;7.714;2022-12-29T05:29:26;98364.69;;;10.57;100.00
71195;BME280;58908;51.426;7.714;2022-12-29T05:31:53;98346.59;;;10.52;100.00
71195;BME280;58908;51.426;7.714;2022-12-29T05:34:20;98352.84;;;10.51;100.00
71195;BME280;58908;51.426;7.714;2022-12-29T05:36:46;98340.22;;;10.55;100.00
71195;BME280;58908;51.426;7.714;2022-12-29T05:39:12;98338.56;;;10.43;100.00
71195;BME280;58908;51.426;7.714;2022-12-29T05:41:38;98322.88;;;10.41;100.00
71195;BME280;58908;51.426;7.714;2022-12-29T05:44:05;98337.13;;;10.50;100.00
71195;BME280;58908;51.426;7.714;2022-12-29T05:46:31;98358.47;;;10.58;100.00
71195;BME280;58908;51.426;7.714;2022-12-29T05:48:58;98348.97;;;10.55;100.00
71195;BME280;58908;51.426;7.714;2022-12-29T05:51:25;98357.00;;;10.54;100.00
71195;BME280;58908;51.426;7.714;2022-12-29T05:53:51;98370.19;;;10.54;100.00
71195;BME280;58908;51.426;7.714;2022-12-29T05:56:17;98376.91;;;10.47;100.00
71195;BME280;58908;51.426;7.714;2022-12-29T05:58:43;98381.09;;;10.60;100.00
71195;BME280;58908;51.426;7.714;2022-12-29T06:01:10;98390.19;;;10.56;100.00
71195;BME280;58908;51.426;7.714;2022-12-29T06:03:36;98377.25;;;10.64;100.00
71195;BME280;58908;51.426;7.714;2022-12-29T06:06:04;98384.94;;;10.56;100.00
71195;BME280;58908;51.426;7.714;2022-12-29T06:08:30;98386.97;;;10.53;100.00
71195;BME280;58908;51.426;7.714;2022-12-29T06:10:56;98387.09;;;10.51;100.00
71195;BME280;58908;51.426;7.714;2022-12-29T06:13:23;98393.34;;;10.39;100.00
71195;BME280;58908;51.426;7.714;2022-12-29T06:15:49;98383.88;;;10.37;100.00
71195;BME280;58908;51.426;7.714;2022-12-29T06:18:15;98396.78;;;10.51;100.00
71195;BME280;58908;51.426;7.714;2022-12-29T06:20:41;98385.88;;;10.33;100.00
71195;BME280;58908;51.426;7.714;2022-12-29T06:23:09;98395.72;;;10.42;100.00
71195;BME280;58908;51.426;7.714;2022-12-29T06:25:36;98402.31;;;10.37;100.00
71195;BME280;58908;51.426;7.714;2022-12-29T06:28:03;98380.03;;;10.41;100.00
71195;BME280;58908;51.426;7.714;2022-12-29T06:30:30;98386.34;;;10.38;100.00
71195;BME280;58908;51.426;7.714;2022-12-29T06:32:57;98388.44;;;10.46;100.00
71195;BME280;58908;51.426;7.714;2022-12-29T06:35:23;98378.25;;;10.41;100.00
71195;BME280;58908;51.426;7.714;2022-12-29T06:37:49;98377.97;;;10.55;100.00
71195;BME280;58908;51.426;7.714;2022-12-29T06:40:17;98389.38;;;10.56;100.00
71195;BME280;58908;51.426;7.714;2022-12-29T06:42:43;98406.72;;;10.36;100.00
71195;BME280;58908;51.426;7.714;2022-12-29T06:45:10;98386.84;;;10.32;100.00
71195;BME280;58908;51.426;7.714;2022-12-29T06:47:36;98393.78;;;10.22;100.00
71195;BME280;58908;51.426;7.714;2022-12-29T06:50:02;98388.63;;;10.32;100.00
71195;BME280;58908;51.426;7.714;2022-12-29T06:52:28;98391.28;;;10.32;100.00
71195;BME280;58908;51.426;7.714;2022-12-29T06:54:55;98402.41;;;10.24;100.00
71195;BME280;58908;51.426;7.714;2022-12-29T06:57:22;98414.53;;;10.27;100.00
71195;BME280;58908;51.426;7.714;2022-12-29T06:59:49;98425.53;;;10.32;100.00
71195;BME280;58908;51.426;7.714;2022-12-29T07:02:15;98436.59;;;10.37;100.00
71195;BME280;58908;51.426;7.714;2022-12-29T07:04:43;98450.09;;;10.32;100.00
71195;BME280;58908;51.426;7.714;2022-12-29T07:07:09;98444.84;;;10.43;100.00
71195;BME280;58908;51.426;7.714;2022-12-29T07:09:35;98441.97;;;10.35;100.00
71195;BME280;58908;51.426;7.714;2022-12-29T07:12:01;98453.56;;;10.33;100.00
71195;BME280;58908;51.426;7.714;2022-12-29T07:14:29;98445.56;;;10.34;100.00
71195;BME280;58908;51.426;7.714;2022-12-29T07:16:55;98455.28;;;10.34;100.00
71195;BME280;58908;51.426;7.714;2022-12-29T07:19:22;98447.72;;;10.29;100.00
71195;BME280;58908;51.426;7.714;2022-12-29T07:21:48;98440.50;;;10.20;100.00
71195;BME280;58908;51.426;7.714;2022-12-29T07:24:14;98450.69;;;10.14;100.00
71195;BME280;58908;51.426;7.714;2022-12-29T07:26:40;98454.13;;;10.14;100.00
71195;BME280;58908;51.426;7.714;2022-12-29T07:29:06;98457.19;;;9.97;100.00
71195;BME280;58908;51.426;7.714;2022-12-29T07:31:34;98461.94;;;9.92;100.00
71195;BME280;58908;51.426;7.714;2022-12-29T07:34:00;98467.00;;;9.95;100.00
71195;BME280;58908;51.426;7.714;2022-12-29T07:36:27;98469.13;;;9.90;100.00
71195;BME280;58908;51.426;7.714;2022-12-29T07:38:53;98482.59;;;9.75;100.00
71195;BME280;58908;51.426;7.714;2022-12-29T07:41:19;98484.34;;;9.63;100.00
71195;BME280;58908;51.426;7.714;2022-12-29T07:43:46;98485.84;;;9.55;100.00
71195;BME280;58908;51.426;7.714;2022-12-29T07:46:12;98489.75;;;9.49;100.00
71195;BME280;58908;51.426;7.714;2022-12-29T07:48:40;98499.31;;;9.40;100.00
71195;BME280;58908;51.426;7.714;2022-12-29T07:51:06;98500.44;;;9.36;100.00
71195;BME280;58908;51.426;7.714;2022-12-29T07:53:33;98509.22;;;9.24;100.00
71195;BME280;58908;51.426;7.714;2022-12-29T07:55:59;98489.69;;;9.15;100.00
71195;BME280;58908;51.426;7.714;2022-12-29T07:58:25;98498.06;;;9.20;100.00
71195;BME280;58908;51.426;7.714;2022-12-29T08:00:52;98500.22;;;9.15;100.00
71195;BME280;58908;51.426;7.714;2022-12-29T08:03:19;98510.72;;;9.15;100.00
71195;BME280;58908;51.426;7.714;2022-12-29T08:05:46;98517.91;;;9.13;100.00
71195;BME280;58908;51.426;7.714;2022-12-29T08:08:12;98510.19;;;9.10;100.00
71195;BME280;58908;51.426;7.714;2022-12-29T08:10:39;98515.38;;;9.12;100.00
71195;BME280;58908;51.426;7.714;2022-12-29T08:13:05;98532.41;;;9.19;100.00
71195;BME280;58908;51.426;7.714;2022-12-29T08:15:32;98535.66;;;9.22;100.00
71195;BME280;58908;51.426;7.714;2022-12-29T08:17:58;98532.59;;;9.16;100.00
71195;BME280;58908;51.426;7.714;2022-12-29T08:20:24;98546.50;;;9.18;100.00
71195;BME280;58908;51.426;7.714;2022-12-29T08:22:52;98550.50;;;9.11;100.00
71195;BME280;58908;51.426;7.714;2022-12-29T08:25:18;98554.28;;;9.19;100.00
71195;BME280;58908;51.426;7.714;2022-12-29T08:27:45;98544.16;;;9.26;100.00
71195;BME280;58908;51.426;7.714;2022-12-29T08:30:12;98547.25;;;9.20;100.00
71195;BME280;58908;51.426;7.714;2022-12-29T08:32:38;98538.81;;;9.27;100.00
71195;BME280;58908;51.426;7.714;2022-12-29T08:35:04;98543.63;;;9.33;100.00
71195;BME280;58908;51.426;7.714;2022-12-29T08:37:31;98532.97;;;9.35;100.00
71195;BME280;58908;51.426;7.714;2022-12-29T08:39:59;98543.41;;;9.36;100.00
71195;BME280;58908;51.426;7.714;2022-12-29T08:42:28;98546.03;;;9.36;100.00
71195;BME280;58908;51.426;7.714;2022-12-29T08:44:56;98554.56;;;9.40;100.00
71195;BME280;58908;51.426;7.714;2022-12-29T08:47:22;98535.66;;;9.58;100.00
71195;BME280;58908;51.426;7.714;2022-12-29T08:49:48;98544.44;;;9.69;100.00
71195;BME280;58908;51.426;7.714;2022-12-29T08:52:14;98534.13;;;9.66;100.00
71195;BME280;58908;51.426;7.714;2022-12-29T08:54:41;98543.63;;;9.69;100.00
71195;BME280;58908;51.426;7.714;2022-12-29T08:57:08;98545.69;;;9.76;100.00
71195;BME280;58908;51.426;7.714;2022-12-29T08:59:34;98541.47;;;9.74;100.00
71195;BME280;58908;51.426;7.714;2022-12-29T09:02:01;98541.72;;;9.71;100.00
71195;BME280;58908;51.426;7.714;2022-12-29T09:04:27;98549.03;;;9.78;100.00
71195;BME280;58908;51.426;7.714;2022-12-29T09:06:53;98536.09;;;9.75;100.00
71195;BME280;58908;51.426;7.714;2022-12-29T09:09:20;98526.59;;;9.85;100.00
71195;BME280;58908;51.426;7.714;2022-12-29T09:11:46;98541.75;;;9.82;100.00
71195;BME280;58908;51.426;7.714;2022-12-29T09:14:14;98529.31;;;9.84;100.00
71195;BME280;58908;51.426;7.714;2022-12-29T09:16:40;98537.00;;;9.87;100.00
71195;BME280;58908;51.426;7.714;2022-12-29T09:19:24;98542.25;;;9.87;100.00
71195;BME280;58908;51.426;7.714;2022-12-29T09:21:50;98535.69;;;9.92;100.00
71195;BME280;58908;51.426;7.714;2022-12-29T09:24:16;98550.78;;;9.90;100.00
71195;BME280;58908;51.426;7.714;2022-12-29T09:26:43;98563.22;;;9.88;100.00
71195;BME280;58908;51.426;7.714;2022-12-29T09:29:10;98576.22;;;9.79;100.00
71195;BME280;58908;51.426;7.714;2022-12-29T09:31:37;98584.06;;;9.68;100.00
71195;BME280;58908;51.426;7.714;2022-12-29T09:34:03;98606.13;;;9.42;100.00
71195;BME280;58908;51.426;7.714;2022-12-29T09:36:30;98610.69;;;9.28;100.00
71195;BME280;58908;51.426;7.714;2022-12-29T09:38:56;98620.81;;;9.09;100.00
71195;BME280;58908;51.426;7.714;2022-12-29T09:41:24;98623.66;;;8.93;100.00
71195;BME280;58908;51.426;7.714;2022-12-29T09:43:55;98611.44;;;8.80;100.00
71195;BME280;58908;51.426;7.714;2022-12-29T09:46:24;98618.25;;;8.70;100.00
71195;BME280;58908;51.426;7.714;2022-12-29T09:48:54;98614.38;;;8.63;100.00
71195;BME280;58908;51.426;7.714;2022-12-29T09:51:22;98613.53;;;8.62;100.00
71195;BME280;58908;51.426;7.714;2022-12-29T09:53:50;98619.72;;;8.61;100.00
71195;BME280;58908;51.426;7.714;2022-12-29T09:56:18;98623.72;;;8.67;100.00
71195;BME280;58908;51.426;7.714;2022-12-29T09:58:47;98604.41;;;8.80;100.00
71195;BME280;58908;51.426;7.714;2022-12-29T10:01:18;98612.59;;;9.01;100.00
71195;BME280;58908;51.426;7.714;2022-12-29T10:03:48;98596.69;;;9.15;100.00
71195;BME280;58908;51.426;7.714;2022-12-29T10:06:17;98584.47;;;9.26;100.00
71195;BME280;58908;51.426;7.714;2022-12-29T10:08:47;98593.84;;;9.30;100.00
71195;BME280;58908;51.426;7.714;2022-12-29T10:11:21;98598.69;;;9.36;100.00
71195;BME280;58908;51.426;7.714;2022-12-29T10:13:54;98598.63;;;9.48;100.00
71195;BME280;58908;51.426;7.714;2022-12-29T10:16:27;98594.28;;;9.60;100.00
71195;BME280;58908;51.426;7.714;2022-12-29T10:19:09;98600.19;;;9.63;100.00
71195;BME280;58908;51.426;7.714;2022-12-29T10:21:44;98617.06;;;9.48;100.00
71195;BME280;58908;51.426;7.714;2022-12-29T10:24:14;98612.63;;;9.61;100.00
71195;BME280;58908;51.426;7.714;2022-12-29T10:26:41;98599.25;;;9.64;100.00
71195;BME280;58908;51.426;7.714;2022-12-29T10:29:11;98611.84;;;9.72;100.00
71195;BME280;58908;51.426;7.714;2022-12-29T10:31:40;98603.28;;;9.81;100.00
71195;BME280;58908;51.426;7.714;2022-12-29T10:34:12;98588.44;;;9.80;100.00
71195;BME280;58908;51.426;7.714;2022-12-29T10:36:41;98582.00;;;9.84;100.00
71195;BME280;58908;51.426;7.714;2022-12-29T10:39:13;98593.16;;;9.87;100.00
71195;BME280;58908;51.426;7.714;2022-12-29T10:41:43;98580.47;;;9.92;98.82
71195;BME280;58908;51.426;7.714;2022-12-29T10:44:13;98576.63;;;9.85;98.28
71195;BME280;58908;51.426;7.714;2022-12-29T10:46:40;98593.47;;;9.83;96.82
71195;BME280;58908;51.426;7.714;2022-12-29T10:49:10;98598.53;;;9.86;96.25
71195;BME280;58908;51.426;7.714;2022-12-29T10:51:41;98581.94;;;9.96;94.90
71195;BME280;58908;51.426;7.714;2022-12-29T10:54:10;98594.59;;;10.04;91.86
71195;BME280;58908;51.426;7.714;2022-12-29T10:56:39;98586.69;;;10.04;90.39
71195;BME280;58908;51.426;7.714;2022-12-29T10:59:10;98583.72;;;9.96;91.97
71195;BME280;58908;51.426;7.714;2022-12-29T11:01:40;98597.22;;;10.04;91.37
71195;BME280;58908;51.426;7.714;2022-12-29T11:04:17;98594.88;;;10.12;90.31
71195;BME280;58908;51.426;7.714;2022-12-29T11:06:46;98602.78;;;10.12;90.66
71195;BME280;58908;51.426;7.714;2022-12-29T11:09:14;98598.47;;;10.11;88.89
71195;BME280;58908;51.426;7.714;2022-12-29T11:11:43;98598.72;;;10.19;88.66
71195;BME280;58908;51.426;7.714;2022-12-29T11:14:11;98592.72;;;10.17;89.14
71195;BME280;58908;51.426;7.714;2022-12-29T11:16:38;98598.00;;;10.17;88.98
71195;BME280;58908;51.426;7.714;2022-12-29T11:19:10;98582.91;;;10.19;88.34
71195;BME280;58908;51.426;7.714;2022-12-29T11:21:45;98579.44;;;10.18;87.13
71195;BME280;58908;51.426;7.714;2022-12-29T11:24:18;98603.03;;;10.20;86.96
71195;BME280;58908;51.426;7.714;2022-12-29T11:26:46;98597.28;;;10.15;87.82
71195;BME280;58908;51.426;7.714;2022-12-29T11:29:25;98600.53;;;10.18;86.71
71195;BME280;58908;51.426;7.714;2022-12-29T11:31:52;98604.31;;;10.14;87.49
71195;BME280;58908;51.426;7.714;2022-12-29T11:34:20;98618.78;;;10.09;88.12
71195;BME280;58908;51.426;7.714;2022-12-29T11:36:47;98615.00;;;10.13;87.27
71195;BME280;58908;51.426;7.714;2022-12-29T11:39:26;98613.91;;;10.15;86.88
71195;BME280;58908;51.426;7.714;2022-12-29T11:41:55;98621.00;;;10.15;86.37
71195;BME280;58908;51.426;7.714;2022-12-29T11:44:22;98620.47;;;10.10;86.76
71195;BME280;58908;51.426;7.714;2022-12-29T11:46:49;98625.88;;;10.08;86.52
71195;BME280;58908;51.426;7.714;2022-12-29T11:49:19;98632.81;;;10.09;86.77
71195;BME280;58908;51.426;7.714;2022-12-29T11:51:46;98633.53;;;10.11;86.40
71195;BME280;58908;51.426;7.714;2022-12-29T11:54:14;98639.38;;;10.04;86.63
71195;BME280;58908;51.426;7.714;2022-12-29T11:56:43;98643.78;;;10.03;87.64
71195;BME280;58908;51.426;7.714;2022-12-29T12:01:56;98655.19;;;10.04;86.96
71195;BME280;58908;51.426;7.714;2022-12-29T12:04:23;98655.28;;;10.02;87.33
71195;BME280;58908;51.426;7.714;2022-12-29T12:06:54;98655.38;;;10.01;87.42
71195;BME280;58908;51.426;7.714;2022-12-29T12:09:25;98649.06;;;10.03;87.14
71195;BME280;58908;51.426;7.714;2022-12-29T12:11:53;98652.84;;;9.99;86.90
71195;BME280;58908;51.426;7.714;2022-12-29T12:14:21;98648.63;;;9.97;88.12
71195;BME280;58908;51.426;7.714;2022-12-29T12:16:50;98669.59;;;9.98;87.55
71195;BME280;58908;51.426;7.714;2022-12-29T12:19:23;98659.59;;;10.03;86.59
71195;BME280;58908;51.426;7.714;2022-12-29T12:21:54;98657.72;;;10.05;86.17
71195;BME280;58908;51.426;7.714;2022-12-29T12:24:34;98654.63;;;10.11;86.77
71195;BME280;58908;51.426;7.714;2022-12-29T12:27:07;98663.38;;;10.12;85.95
71195;BME280;58908;51.426;7.714;2022-12-29T12:29:36;98662.53;;;10.11;86.82
71195;BME280;58908;51.426;7.714;2022-12-29T12:32:05;98675.59;;;10.13;85.63
71195;BME280;58908;51.426;7.714;2022-12-29T12:34:37;98654.38;;;10.14;85.20
71195;BME280;58908;51.426;7.714;2022-12-29T12:39:49;98651.69;;;10.03;85.03
71195;BME280;58908;51.426;7.714;2022-12-29T12:42:27;98669.81;;;10.08;84.38
71195;BME280;58908;51.426;7.714;2022-12-29T12:45:04;98681.81;;;9.99;85.65
71195;BME280;58908;51.426;7.714;2022-12-29T12:47:40;98669.59;;;9.98;86.27
71195;BME280;58908;51.426;7.714;2022-12-29T12:50:25;98678.06;;;9.91;86.25
71195;BME280;58908;51.426;7.714;2022-12-29T12:55:56;98690.16;;;9.93;85.51
71195;BME280;58908;51.426;7.714;2022-12-29T12:58:27;98679.41;;;9.96;83.91
71195;BME280;58908;51.426;7.714;2022-12-29T13:01:00;98689.41;;;9.91;84.58
71195;BME280;58908;51.426;7.714;2022-12-29T13:03:37;98698.28;;;9.90;84.55
71195;BME280;58908;51.426;7.714;2022-12-29T13:06:15;98693.56;;;9.83;85.76
71195;BME280;58908;51.426;7.714;2022-12-29T13:11:25;98708.41;;;9.71;87.67
71195;BME280;58908;51.426;7.714;2022-12-29T13:14:04;98695.88;;;9.75;86.78
71195;BME280;58908;51.426;7.714;2022-12-29T13:16:34;98711.50;;;9.78;86.78
71195;BME280;58908;51.426;7.714;2022-12-29T13:19:08;98699.47;;;9.74;87.10